createdAt,value
2022-10-31T00:01:25.133Z,16.40
2022-10-31T00:04:12.473Z,16.40
2022-10-31T00:06:53.764Z,16.40
2022-10-31T00:09:41.478Z,16.60
2022-10-31T00:12:24.220Z,16.80
2022-10-31T00:15:11.447Z,17.10
2022-10-31T00:17:59.769Z,17.00
2022-10-31T00:20:40.626Z,16.70
2022-10-31T00:23:28.560Z,16.40
2022-10-31T00:26:09.684Z,16.30
2022-10-31T00:28:59.473Z,16.50
2022-10-31T00:31:40.817Z,16.30
2022-10-31T00:34:28.466Z,16.10
2022-10-31T00:37:09.686Z,16.00
2022-10-31T00:39:59.452Z,16.00
2022-10-31T00:42:47.488Z,16.00
2022-10-31T00:45:30.215Z,16.10
2022-10-31T00:48:17.526Z,16.40
2022-10-31T00:50:59.050Z,16.30
2022-10-31T00:53:47.469Z,16.10
2022-10-31T00:56:28.809Z,16.00
2022-10-31T00:59:16.470Z,16.10
2022-10-31T01:02:00.530Z,16.20
2022-10-31T01:04:48.476Z,15.90
2022-10-31T01:07:29.802Z,15.80
2022-10-31T01:10:17.468Z,15.70
2022-10-31T01:13:06.491Z,15.80
2022-10-31T01:15:47.732Z,15.80
2022-10-31T01:18:37.505Z,15.70
2022-10-31T01:21:33.500Z,15.80
2022-10-31T01:24:21.565Z,15.80
2022-10-31T01:27:02.665Z,15.80
2022-10-31T01:29:50.525Z,15.90
2022-10-31T01:32:31.620Z,16.00
2022-10-31T01:35:20.519Z,16.30
2022-10-31T01:38:01.669Z,16.30
2022-10-31T01:40:49.480Z,16.40
2022-10-31T01:43:37.578Z,16.40
2022-10-31T01:46:21.670Z,16.50
2022-10-31T01:49:10.516Z,16.70
2022-10-31T01:51:55.534Z,16.60
2022-10-31T01:54:45.502Z,16.60
2022-10-31T01:57:27.463Z,16.50
2022-10-31T02:00:19.496Z,16.30
2022-10-31T02:03:01.713Z,16.20
2022-10-31T02:05:49.480Z,16.10
2022-10-31T02:08:32.800Z,15.90
2022-10-31T02:11:21.532Z,15.60
2022-10-31T02:14:10.596Z,15.50
2022-10-31T02:16:53.657Z,15.50
2022-10-31T02:19:49.494Z,15.60
2022-10-31T02:22:55.520Z,15.80
2022-10-31T02:25:56.510Z,16.00
2022-10-31T02:28:44.732Z,16.00
2022-10-31T02:31:39.490Z,15.80
2022-10-31T02:34:25.750Z,15.80
2022-10-31T02:37:17.527Z,15.80
2022-10-31T02:40:02.785Z,15.90
2022-10-31T02:43:15.536Z,15.80
2022-10-31T02:45:59.641Z,15.50
2022-10-31T02:48:52.516Z,15.30
2022-10-31T02:51:33.650Z,15.20
2022-10-31T02:54:26.618Z,15.00
2022-10-31T02:57:17.580Z,15.00
2022-10-31T03:00:02.305Z,15.20
2022-10-31T03:03:00.771Z,15.30
2022-10-31T03:05:50.906Z,15.40
2022-10-31T03:08:40.536Z,15.30
2022-10-31T03:11:24.890Z,15.20
2022-10-31T03:14:14.596Z,15.20
2022-10-31T03:17:02.056Z,15.20
2022-10-31T03:19:52.565Z,15.30
2022-10-31T03:22:51.524Z,15.40
2022-10-31T03:25:40.560Z,15.40
2022-10-31T03:28:23.673Z,15.30
2022-10-31T03:31:11.554Z,14.90
2022-10-31T03:33:53.812Z,14.60
2022-10-31T03:36:47.583Z,14.60
2022-10-31T03:39:38.540Z,14.80
2022-10-31T03:42:22.923Z,15.10
2022-10-31T03:45:12.543Z,14.80
2022-10-31T03:47:54.654Z,14.70
2022-10-31T03:50:46.534Z,14.80
2022-10-31T03:53:31.570Z,15.00
2022-10-31T03:56:25.537Z,15.20
2022-10-31T03:59:09.687Z,15.00
2022-10-31T04:02:00.717Z,15.00
2022-10-31T04:04:43.744Z,14.90
2022-10-31T04:07:33.636Z,15.20
2022-10-31T04:10:25.447Z,15.20
2022-10-31T04:13:13.801Z,15.00
2022-10-31T04:16:04.547Z,14.70
2022-10-31T04:18:45.707Z,14.50
2022-10-31T04:21:36.544Z,14.50
2022-10-31T04:24:18.745Z,14.50
2022-10-31T04:27:06.652Z,14.30
2022-10-31T04:29:50.958Z,14.10
2022-10-31T04:32:39.590Z,14.00
2022-10-31T04:35:21.711Z,14.20
2022-10-31T04:38:09.557Z,14.20
2022-10-31T04:40:59.558Z,14.30
2022-10-31T04:44:12.881Z,14.20
2022-10-31T04:47:06.558Z,14.10
2022-10-31T04:49:47.950Z,14.00
2022-10-31T04:52:36.663Z,13.90
2022-10-31T04:55:18.938Z,14.00
2022-10-31T04:58:25.627Z,14.10
2022-10-31T05:01:07.109Z,14.30
2022-10-31T05:03:56.557Z,14.20
2022-10-31T05:06:39.944Z,14.30
2022-10-31T05:09:29.572Z,14.60
2022-10-31T05:12:11.024Z,14.60
2022-10-31T05:15:17.559Z,14.30
2022-10-31T05:18:26.208Z,14.30
2022-10-31T05:21:23.764Z,14.30
2022-10-31T05:24:16.564Z,14.30
2022-10-31T05:26:57.690Z,14.20
2022-10-31T05:29:45.582Z,14.50
2022-10-31T05:32:26.737Z,14.40
2022-10-31T05:35:49.643Z,14.60
2022-10-31T05:38:44.796Z,14.60
2022-10-31T05:41:39.570Z,15.00
2022-10-31T05:44:35.580Z,15.10
2022-10-31T05:47:27.913Z,15.00
2022-10-31T05:50:47.590Z,14.80
2022-10-31T05:53:28.937Z,14.50
2022-10-31T05:56:18.687Z,14.40
2022-10-31T05:58:59.892Z,14.40
2022-10-31T06:01:51.769Z,14.40
2022-10-31T06:04:53.044Z,14.60
2022-10-31T06:07:42.592Z,14.50
2022-10-31T06:10:24.183Z,14.80
2022-10-31T06:13:13.650Z,15.20
2022-10-31T06:16:11.583Z,15.10
2022-10-31T06:18:53.842Z,14.90
2022-10-31T06:21:41.692Z,14.90
2022-10-31T06:24:22.882Z,15.10
2022-10-31T06:27:17.676Z,15.50
2022-10-31T06:30:00.877Z,15.50
2022-10-31T06:32:50.603Z,15.70
2022-10-31T06:35:31.738Z,15.40
2022-10-31T06:38:19.688Z,15.30
2022-10-31T06:41:14.274Z,15.20
2022-10-31T06:44:06.586Z,15.60
2022-10-31T06:46:55.740Z,15.90
2022-10-31T06:50:02.595Z,15.80
2022-10-31T06:52:44.740Z,15.80
2022-10-31T06:55:32.650Z,15.70
2022-10-31T06:58:13.855Z,15.70
2022-10-31T07:01:02.752Z,15.80
2022-10-31T07:03:45.811Z,15.70
2022-10-31T07:06:33.614Z,15.40
2022-10-31T07:09:23.609Z,15.30
2022-10-31T07:12:09.099Z,15.50
2022-10-31T07:15:03.641Z,15.70
2022-10-31T07:17:47.927Z,15.90
2022-10-31T07:20:37.628Z,16.00
2022-10-31T07:23:25.773Z,16.20
2022-10-31T07:26:33.632Z,16.10
2022-10-31T07:29:28.615Z,16.00
2022-10-31T07:32:10.045Z,15.70
2022-10-31T07:35:03.695Z,15.80
2022-10-31T07:37:56.990Z,15.70
2022-10-31T07:40:44.638Z,15.60
2022-10-31T07:43:26.020Z,15.50
2022-10-31T07:46:32.641Z,16.00
2022-10-31T07:49:33.059Z,16.20
2022-10-31T07:52:40.640Z,16.40
2022-10-31T07:55:48.380Z,16.50
2022-10-31T07:58:42.647Z,16.60
2022-10-31T08:01:24.023Z,16.50
2022-10-31T08:04:34.622Z,16.30
2022-10-31T08:07:44.635Z,16.40
2022-10-31T08:10:29.779Z,16.40
2022-10-31T08:13:19.714Z,16.40
2022-10-31T08:16:04.916Z,16.40
2022-10-31T08:19:00.664Z,16.10
2022-10-31T08:21:45.890Z,16.00
2022-10-31T08:24:33.683Z,16.30
2022-10-31T08:27:15.764Z,16.60
2022-10-31T08:30:05.642Z,16.80
2022-10-31T08:32:52.827Z,17.00
2022-10-31T08:36:03.710Z,17.00
2022-10-31T08:39:12.653Z,16.80
2022-10-31T08:41:53.788Z,16.70
2022-10-31T08:44:42.670Z,16.80
2022-10-31T08:47:28.812Z,17.00
2022-10-31T08:50:16.634Z,17.20
2022-10-31T08:53:05.158Z,16.80
2022-10-31T08:55:54.634Z,16.90
2022-10-31T08:58:40.088Z,16.80
2022-10-31T09:01:27.836Z,17.10
2022-10-31T09:04:10.850Z,17.30
2022-10-31T09:07:20.247Z,17.30
2022-10-31T09:10:01.837Z,17.30
2022-10-31T09:12:51.652Z,17.50
2022-10-31T09:15:59.679Z,17.70
2022-10-31T09:18:42.140Z,17.60
2022-10-31T09:21:33.660Z,17.80
2022-10-31T09:24:15.061Z,17.80
2022-10-31T09:27:02.773Z,17.80
2022-10-31T09:29:47.056Z,17.90
2022-10-31T09:32:35.747Z,17.90
2022-10-31T09:35:19.180Z,17.90
2022-10-31T09:38:12.684Z,17.70
2022-10-31T09:40:57.707Z,17.60
2022-10-31T09:43:49.667Z,17.40
2022-10-31T09:46:37.012Z,17.20
2022-10-31T09:49:36.710Z,17.30
2022-10-31T09:52:21.066Z,17.40
2022-10-31T09:55:12.657Z,17.60
2022-10-31T09:57:55.360Z,17.40
2022-10-31T10:00:43.732Z,17.50
2022-10-31T10:03:37.366Z,17.90
2022-10-31T10:06:47.666Z,18.10
2022-10-31T10:10:05.695Z,18.30
2022-10-31T10:13:35.810Z,18.00
2022-10-31T10:16:34.730Z,18.10
2022-10-31T10:19:23.839Z,18.10
2022-10-31T10:22:17.693Z,18.10
2022-10-31T10:25:10.880Z,18.20
2022-10-31T10:28:02.985Z,18.40
2022-10-31T10:30:46.886Z,18.60
2022-10-31T10:33:38.688Z,18.70
2022-10-31T10:36:21.875Z,19.00
2022-10-31T10:39:11.796Z,19.00
2022-10-31T10:42:14.383Z,19.00
2022-10-31T10:45:19.768Z,18.90
2022-10-31T10:48:15.689Z,19.00
2022-10-31T10:50:57.057Z,19.10
2022-10-31T10:54:10.587Z,19.00
2022-10-31T10:56:57.829Z,19.10
2022-10-31T10:59:46.788Z,19.20
2022-10-31T11:02:28.929Z,19.20
2022-10-31T11:05:17.769Z,19.20
2022-10-31T11:07:59.260Z,19.30
2022-10-31T11:10:47.727Z,19.30
2022-10-31T11:13:31.573Z,19.20
2022-10-31T11:16:21.808Z,19.00
2022-10-31T11:19:10.350Z,19.20
2022-10-31T11:21:58.776Z,19.30
2022-10-31T11:24:41.371Z,19.20
2022-10-31T11:27:30.771Z,19.20
2022-10-31T11:30:15.336Z,19.20
2022-10-31T11:33:04.713Z,19.10
2022-10-31T11:35:59.718Z,19.10
2022-10-31T11:38:42.635Z,19.00
2022-10-31T11:41:32.734Z,19.00
2022-10-31T11:44:15.496Z,19.00
2022-10-31T11:47:06.719Z,19.00
2022-10-31T11:49:50.431Z,19.00
2022-10-31T11:52:39.825Z,19.10
2022-10-31T11:55:32.449Z,19.20
2022-10-31T11:58:20.735Z,19.30
2022-10-31T12:01:02.184Z,19.20
2022-10-31T12:03:57.740Z,19.30
2022-10-31T12:06:54.788Z,19.30
2022-10-31T12:09:36.902Z,19.30
2022-10-31T12:12:36.721Z,19.30
2022-10-31T12:15:29.715Z,19.40
2022-10-31T12:18:26.743Z,19.50
2022-10-31T12:21:15.926Z,19.60
2022-10-31T12:24:09.713Z,19.70
2022-10-31T12:26:56.768Z,19.70
2022-10-31T12:29:51.788Z,19.80
2022-10-31T12:32:37.999Z,19.80
2022-10-31T12:35:44.740Z,19.90
2022-10-31T12:38:44.783Z,19.60
2022-10-31T12:41:39.737Z,19.70
2022-10-31T12:44:40.749Z,19.80
2022-10-31T12:47:33.902Z,20.00
2022-10-31T12:50:29.730Z,20.20
2022-10-31T12:56:15.744Z,20.20
2022-10-31T12:59:01.988Z,20.10
2022-10-31T13:01:56.891Z,20.10
2022-10-31T13:04:43.970Z,20.30
2022-10-31T13:07:33.837Z,20.10
2022-10-31T13:10:22.939Z,20.30
2022-10-31T13:13:14.746Z,20.50
2022-10-31T13:15:57.946Z,20.20
2022-10-31T13:18:48.756Z,20.00
2022-10-31T13:21:31.960Z,20.10
2022-10-31T13:24:21.772Z,20.60
2022-10-31T13:27:11.787Z,20.70
2022-10-31T13:30:06.925Z,20.80
2022-10-31T13:32:51.779Z,20.70
2022-10-31T13:35:36.460Z,20.60
2022-10-31T13:38:28.752Z,20.30
2022-10-31T13:41:17.141Z,20.40
2022-10-31T13:44:14.840Z,20.50
2022-10-31T13:46:58.355Z,20.50
2022-10-31T13:49:52.844Z,20.40
2022-10-31T13:52:34.321Z,20.30
2022-10-31T13:55:42.755Z,20.30
2022-10-31T13:58:25.880Z,20.30
2022-10-31T14:01:29.959Z,20.40
2022-10-31T14:04:22.140Z,20.40
2022-10-31T14:07:07.756Z,20.40
2022-10-31T14:10:05.845Z,20.50
2022-10-31T14:12:48.212Z,20.50
2022-10-31T14:15:36.760Z,20.60
2022-10-31T14:18:23.784Z,20.70
2022-10-31T14:21:13.772Z,20.70
2022-10-31T14:24:01.973Z,20.70
2022-10-31T14:26:44.832Z,20.70
2022-10-31T14:29:28.033Z,20.60
2022-10-31T14:32:21.831Z,20.60
2022-10-31T14:35:03.420Z,20.60
2022-10-31T14:38:01.047Z,20.50
2022-10-31T14:43:55.819Z,20.50
2022-10-31T14:46:43.194Z,20.50
2022-10-31T14:49:36.869Z,20.50
2022-10-31T14:52:20.291Z,20.40
2022-10-31T14:55:10.813Z,20.40
2022-10-31T14:57:54.616Z,20.40
2022-10-31T15:00:42.838Z,20.30
2022-10-31T15:03:26.890Z,20.20
2022-10-31T15:06:15.905Z,20.20
2022-10-31T15:09:03.859Z,20.20
2022-10-31T15:11:46.989Z,20.30
2022-10-31T15:14:35.880Z,20.40
2022-10-31T15:17:19.004Z,20.50
2022-10-31T15:20:06.897Z,20.30
2022-10-31T15:22:58.019Z,20.20
2022-10-31T15:25:43.813Z,20.20
2022-10-31T15:28:27.040Z,19.90
2022-10-31T15:31:15.807Z,19.90
2022-10-31T15:33:58.569Z,20.00
2022-10-31T15:36:46.857Z,20.10
2022-10-31T15:39:28.188Z,19.90
2022-10-31T15:42:16.849Z,19.50
2022-10-31T15:45:03.443Z,19.40
2022-10-31T15:47:51.814Z,19.60
2022-10-31T15:50:47.900Z,19.40
2022-10-31T15:53:30.479Z,19.50
2022-10-31T15:56:18.903Z,19.50
2022-10-31T15:59:00.960Z,19.20
2022-10-31T16:01:52.041Z,19.20
2022-10-31T16:04:33.228Z,18.90
2022-10-31T16:07:27.844Z,18.80
2022-10-31T16:10:24.549Z,18.70
2022-10-31T16:13:11.798Z,18.70
2022-10-31T16:16:21.388Z,18.60
2022-10-31T16:19:07.825Z,18.50
2022-10-31T16:21:57.850Z,18.50
2022-10-31T16:24:48.252Z,18.50
2022-10-31T16:27:32.901Z,18.30
2022-10-31T16:30:39.665Z,18.30
2022-10-31T16:33:43.840Z,18.40
2022-10-31T16:36:35.687Z,18.40
2022-10-31T16:39:24.861Z,18.30
2022-10-31T16:42:06.574Z,18.20
2022-10-31T16:44:53.809Z,18.10
2022-10-31T16:47:41.837Z,18.00
2022-10-31T16:50:24.072Z,17.90
2022-10-31T16:53:14.728Z,17.80
2022-10-31T16:55:58.020Z,18.00
2022-10-31T16:58:45.799Z,18.10
2022-10-31T17:01:27.056Z,18.00
2022-10-31T17:04:16.921Z,18.20
2022-10-31T17:06:58.083Z,18.10
2022-10-31T17:09:46.916Z,18.10
2022-10-31T17:12:31.084Z,18.10
2022-10-31T17:15:23.961Z,17.90
2022-10-31T17:18:11.838Z,17.80
2022-10-31T17:20:56.811Z,17.90
2022-10-31T17:23:44.846Z,18.00
2022-10-31T17:26:27.626Z,18.00
2022-10-31T17:29:14.938Z,18.00
2022-10-31T17:31:56.681Z,18.00
2022-10-31T17:34:44.871Z,17.90
2022-10-31T17:37:26.284Z,18.00
2022-10-31T17:40:13.941Z,18.00
2022-10-31T17:42:57.679Z,18.00
2022-10-31T17:45:45.874Z,18.10
2022-10-31T17:48:33.945Z,18.10
2022-10-31T17:51:15.099Z,18.20
2022-10-31T17:54:02.940Z,18.30
2022-10-31T17:56:44.120Z,18.30
2022-10-31T17:59:33.973Z,18.20
2022-10-31T18:02:16.177Z,18.20
2022-10-31T18:05:03.874Z,18.30
2022-10-31T18:07:45.460Z,18.20
2022-10-31T18:10:32.880Z,18.30
2022-10-31T18:13:15.013Z,18.30
2022-10-31T18:16:03.905Z,18.30
2022-10-31T18:18:51.876Z,18.30
2022-10-31T18:21:33.532Z,18.50
2022-10-31T18:24:21.974Z,18.60
2022-10-31T18:27:03.235Z,18.60
2022-10-31T18:29:50.862Z,18.50
2022-10-31T18:32:33.842Z,18.50
2022-10-31T18:35:22.853Z,18.40
2022-10-31T18:38:04.617Z,18.40
2022-10-31T18:40:52.871Z,18.30
2022-10-31T18:43:34.657Z,18.40
2022-10-31T18:46:22.878Z,18.40
2022-10-31T18:49:12.861Z,18.30
2022-10-31T18:51:54.048Z,18.10
2022-10-31T18:54:41.876Z,18.20
2022-10-31T18:57:23.122Z,18.30
2022-10-31T19:00:10.866Z,18.40
2022-10-31T19:02:54.484Z,18.40
2022-10-31T19:05:45.911Z,18.30
2022-10-31T19:11:16.904Z,18.40
2022-10-31T19:13:58.104Z,18.40
2022-10-31T19:16:45.889Z,18.30
2022-10-31T19:19:34.908Z,18.50
2022-10-31T19:22:17.621Z,18.60
2022-10-31T19:25:09.379Z,18.70
2022-10-31T19:27:52.330Z,18.60
2022-10-31T19:30:39.908Z,18.60
2022-10-31T19:33:27.847Z,18.40
2022-10-31T19:36:19.994Z,18.40
2022-10-31T19:39:02.631Z,18.40
2022-10-31T19:41:49.903Z,18.10
2022-10-31T19:44:38.940Z,18.10
2022-10-31T19:47:20.151Z,18.30
2022-10-31T19:50:07.926Z,18.30
2022-10-31T19:52:49.127Z,18.40
2022-10-31T19:55:37.922Z,18.30
2022-10-31T19:58:20.185Z,18.30
2022-10-31T20:01:08.072Z,18.30
2022-10-31T20:03:50.160Z,18.20
2022-10-31T20:06:38.976Z,18.40
2022-10-31T20:09:21.117Z,18.30
2022-10-31T20:12:09.974Z,18.20
2022-10-31T20:14:57.917Z,18.10
2022-10-31T20:17:39.329Z,18.20
2022-10-31T20:20:26.973Z,18.20
2022-10-31T20:23:21.938Z,18.40
2022-10-31T20:26:09.916Z,18.40
2022-10-31T20:28:53.187Z,18.20
2022-10-31T20:31:43.986Z,18.40
2022-10-31T20:34:25.173Z,18.40
2022-10-31T20:37:12.912Z,18.40
2022-10-31T20:40:00.919Z,18.40
2022-10-31T20:42:42.320Z,18.40
2022-10-31T20:45:31.941Z,18.50
2022-10-31T20:48:13.593Z,18.60
2022-10-31T20:51:01.019Z,18.60
2022-10-31T20:53:42.484Z,18.60
2022-10-31T20:56:31.936Z,18.70
2022-10-31T20:59:15.151Z,18.60
2022-10-31T21:02:05.009Z,18.70
2022-10-31T21:04:46.253Z,18.80
2022-10-31T21:07:33.925Z,18.70
2022-10-31T21:10:28.966Z,18.60
2022-10-31T21:13:10.386Z,18.50
2022-10-31T21:15:57.935Z,18.60
2022-10-31T21:18:41.821Z,18.60
2022-10-31T21:21:32.693Z,18.80
2022-10-31T21:24:22.296Z,18.70
2022-10-31T21:27:05.283Z,18.60
2022-10-31T21:29:48.458Z,18.70
2022-10-31T21:32:35.960Z,18.80
2022-10-31T21:35:18.772Z,18.80
2022-10-31T21:38:06.021Z,18.80
2022-10-31T21:40:53.941Z,18.60
2022-10-31T21:43:35.130Z,18.70
2022-10-31T21:46:23.972Z,18.50
2022-10-31T21:49:06.186Z,18.60
2022-10-31T21:51:55.027Z,18.70
2022-10-31T21:54:37.336Z,18.60
2022-10-31T21:57:25.002Z,18.60
2022-10-31T22:00:09.027Z,18.70
2022-10-31T22:02:56.981Z,18.70
2022-10-31T22:05:38.182Z,18.90
2022-10-31T22:08:27.027Z,18.70
2022-10-31T22:11:15.967Z,18.70
2022-10-31T22:13:59.293Z,18.70
2022-10-31T22:16:48.932Z,18.70
2022-10-31T22:19:30.274Z,18.70
2022-10-31T22:22:17.956Z,18.70
2022-10-31T22:25:07.189Z,18.70
2022-10-31T22:27:48.968Z,18.70
2022-10-31T22:30:30.270Z,18.70
2022-10-31T22:33:19.015Z,18.70
2022-10-31T22:36:02.902Z,18.70
2022-10-31T22:38:51.987Z,18.80
2022-10-31T22:41:42.956Z,18.70
2022-10-31T22:44:24.235Z,18.70
2022-10-31T22:47:11.978Z,18.70
2022-10-31T22:49:53.102Z,18.60
2022-10-31T22:52:40.963Z,18.70
2022-10-31T22:55:22.235Z,18.60
2022-10-31T22:58:11.094Z,18.50
2022-10-31T23:00:52.275Z,18.40
2022-10-31T23:03:40.005Z,18.40
2022-10-31T23:06:23.161Z,18.50
2022-10-31T23:09:14.000Z,18.20
2022-10-31T23:12:22.076Z,18.30
2022-10-31T23:15:04.043Z,18.20
2022-10-31T23:17:52.016Z,18.20
2022-10-31T23:20:33.428Z,18.10
2022-10-31T23:23:21.011Z,18.20
2022-10-31T23:26:19.943Z,18.30
2022-10-31T23:29:07.970Z,18.30
2022-10-31T23:31:54.380Z,18.20
2022-10-31T23:34:42.045Z,18.30
2022-10-31T23:37:30.988Z,18.40
2022-10-31T23:40:13.264Z,18.50
2022-10-31T23:43:01.097Z,18.70
2022-10-31T23:45:42.214Z,18.80
2022-10-31T23:48:32.058Z,18.60
2022-10-31T23:51:17.165Z,18.70
2022-10-31T23:54:05.042Z,18.60
2022-10-31T23:56:46.204Z,18.60
2022-10-31T23:59:34.986Z,18.60
